Map

Track Data

SID SEASON NUMBER BASIN SUBBASIN NAME ISO_TIME NATURE LAT LON WMO_WIND WMO_PRES WMO_AGENCY TRACK_TYPE DIST2LAND LANDFALL IFLAG USA_AGENCY USA_ATCF_ID USA_LAT USA_LON USA_RECORD USA_STATUS USA_WIND USA_PRES USA_SSHS USA_R34_NE USA_R34_SE USA_R34_SW USA_R34_NW USA_R50_NE USA_R50_SE USA_R50_SW USA_R50_NW USA_R64_NE USA_R64_SE USA_R64_SW USA_R64_NW USA_POCI USA_ROCI USA_RMW USA_EYE TOKYO_LAT TOKYO_LON TOKYO_GRADE TOKYO_WIND TOKYO_PRES TOKYO_R50_DIR TOKYO_R50_LONG TOKYO_R50_SHORT TOKYO_R30_DIR TOKYO_R30_LONG TOKYO_R30_SHORT TOKYO_LAND CMA_LAT CMA_LON CMA_CAT CMA_WIND CMA_PRES HKO_LAT HKO_LON HKO_CAT HKO_WIND HKO_PRES NEWDELHI_LAT NEWDELHI_LON NEWDELHI_GRADE NEWDELHI_WIND NEWDELHI_PRES NEWDELHI_CI NEWDELHI_DP NEWDELHI_POCI REUNION_LAT REUNION_LON REUNION_TYPE REUNION_WIND REUNION_PRES REUNION_TNUM REUNION_CI REUNION_RMW REUNION_R34_NE REUNION_R34_SE REUNION_R34_SW REUNION_R34_NW REUNION_R50_NE REUNION_R50_SE REUNION_R50_SW REUNION_R50_NW REUNION_R64_NE REUNION_R64_SE REUNION_R64_SW REUNION_R64_NW BOM_LAT BOM_LON BOM_TYPE BOM_WIND BOM_PRES BOM_TNUM BOM_CI BOM_RMW BOM_R34_NE BOM_R34_SE BOM_R34_SW BOM_R34_NW BOM_R50_NE BOM_R50_SE BOM_R50_SW BOM_R50_NW BOM_R64_NE BOM_R64_SE BOM_R64_SW BOM_R64_NW BOM_ROCI BOM_POCI BOM_EYE BOM_POS_METHOD BOM_PRES_METHOD NADI_LAT NADI_LON NADI_CAT NADI_WIND NADI_PRES WELLINGTON_LAT WELLINGTON_LON WELLINGTON_WIND WELLINGTON_PRES DS824_LAT DS824_LON DS824_STAGE DS824_WIND DS824_PRES TD9636_LAT TD9636_LON TD9636_STAGE TD9636_WIND TD9636_PRES TD9635_LAT TD9635_LON TD9635_WIND TD9635_PRES TD9635_ROCI NEUMANN_LAT NEUMANN_LON NEUMANN_CLASS NEUMANN_WIND NEUMANN_PRES MLC_LAT MLC_LON MLC_CLASS MLC_WIND MLC_PRES USA_GUST BOM_GUST BOM_GUST_PER REUNION_GUST REUNION_GUST_PER USA_SEAHGT USA_SEARAD_NE USA_SEARAD_SE USA_SEARAD_SW USA_SEARAD_NW STORM_SPEED STORM_DIR
1886319N11094 1886 46 NI BB NOT_NAMED 1886-11-15 00:00:00 TS 10.5000 93.8000 main 514 514 _________O____ -1 10.5000 93.8000 TC 64 0 0
1886319N11094 1886 46 NI BB NOT_NAMED 1886-11-15 03:00:00 TS 10.5000 93.8000 main 514 514 _________PO___ -1 10.5000 93.8000 TC 64 10.5000 93.8000 4 0 0
1886319N11094 1886 46 NI BB NOT_NAMED 1886-11-15 06:00:00 TS 10.5038 93.8000 main 514 514 _________OP___ -1 10.5000 93.8000 TC 64 10.5094 93.8000 4 0 0
1886319N11094 1886 46 NI BB NOT_NAMED 1886-11-15 09:00:00 TS 10.5064 93.8000 main 514 514 _________PP___ -1 10.5000 93.8000 TC 64 10.5150 93.8000 4 0 0
1886319N11094 1886 46 NI BB NOT_NAMED 1886-11-15 12:00:00 TS 10.5066 93.8000 main 514 514 _________OP___ -1 10.5000 93.8000 TC 64 10.5131 93.8000 4 0 0
1886319N11094 1886 46 NI BB NOT_NAMED 1886-11-15 15:00:00 TS 10.5000 93.8000 main 514 514 _________PO___ -1 10.5000 93.8000 TC 64 10.5000 93.8000 4 0 0
1886319N11094 1886 46 NI BB NOT_NAMED 1886-11-15 18:00:00 TS 10.4878 93.8000 main 514 514 _________OP___ -1 10.5000 93.8000 TC 64 10.4756 93.8000 4 0 139
1886319N11094 1886 46 NI BB NOT_NAMED 1886-11-15 21:00:00 TS 10.4700 93.8000 main 514 514 _________PP___ -1 10.4850 93.8000 TC 64 10.4550 93.8000 4 0 0
1886319N11094 1886 46 NI BB NOT_NAMED 1886-11-16 00:00:00 TS 10.4784 93.8000 main 514 514 _________OP___ -1 10.5000 93.8000 TC 64 10.4569 93.8000 4 1 18
1886319N11094 1886 46 NI BB NOT_NAMED 1886-11-16 03:00:00 TS 10.5350 93.8000 main 514 514 _________PO___ -1 10.5700 93.8000 TC 64 10.5000 93.8000 4 2 8
1886319N11094 1886 46 NI BB NOT_NAMED 1886-11-16 06:00:00 TS 10.6534 93.8000 main 514 514 _________OP___ -1 10.7000 93.8000 TC 64 10.6069 93.8000 4 3 0
1886319N11094 1886 46 NI BB NOT_NAMED 1886-11-16 09:00:00 TS 10.8238 93.8000 main 514 514 _________PP___ -1 10.8925 93.8000 TC 64 10.7550 93.8000 4 4 4
1886319N11094 1886 46 NI BB NOT_NAMED 1886-11-16 12:00:00 TS 11.0128 93.8000 main 515 515 _________OP___ -1 11.1000 93.8000 TC 64 10.9256 93.8000 4 4 4
1886319N11094 1886 46 NI BB NOT_NAMED 1886-11-16 15:00:00 TS 11.1787 93.8000 main 517 508 _________PO___ -1 11.2575 93.8000 TC 64 11.1000 93.8000 4 3 0
1886319N11094 1886 46 NI BB NOT_NAMED 1886-11-16 18:00:00 TS 11.3270 93.8020 main 508 485 _________OP___ -1 11.4000 93.8000 TC 64 11.2541 93.8041 4 3 0
1886319N11094 1886 46 NI BB NOT_NAMED 1886-11-16 21:00:00 TS 11.4787 93.8037 main 485 474 _________PP___ -1 11.5500 93.8000 TC 64 11.4075 93.8075 4 3 0
1886319N11094 1886 46 NI BB NOT_NAMED 1886-11-17 00:00:00 TS 11.6286 93.8036 main 474 452 _________OP___ -1 11.7000 93.8000 TC 64 11.5572 93.8072 4 3 0
1886319N11094 1886 46 NI BB NOT_NAMED 1886-11-17 03:00:00 TS 11.7787 93.8038 main 452 441 _________PO___ -1 11.8575 93.8075 TC 64 11.7000 93.8000 4 3 355
1886319N11094 1886 46 NI BB NOT_NAMED 1886-11-17 06:00:00 TS 11.9181 93.7911 main 441 430 _________OP___ -1 12.0000 93.8000 TC 64 11.8362 93.7822 4 3 349
1886319N11094 1886 46 NI BB NOT_NAMED 1886-11-17 09:00:00 TS 12.0363 93.7538 main 430 421 _________PP___ -1 12.1075 93.7500 TC 64 11.9650 93.7575 4 2 341
1886319N11094 1886 46 NI BB NOT_NAMED 1886-11-17 12:00:00 TS 12.1431 93.7145 main 421 410 _________OP___ -1 12.2000 93.7000 TC 64 12.0863 93.7291 4 2 346
1886319N11094 1886 46 NI BB NOT_NAMED 1886-11-17 15:00:00 TS 12.2500 93.7000 main 399 399 _________PO___ -1 12.3000 93.7000 TC 64 12.2000 93.7000 4 2 0
1886319N11094 1886 46 NI BB NOT_NAMED 1886-11-17 18:00:00 TS 12.3536 93.6895 main 388 388 _________OP___ -1 12.4000 93.7000 TC 64 12.3072 93.6790 4 2 347
1886319N11094 1886 46 NI BB NOT_NAMED 1886-11-17 21:00:00 TS 12.4537 93.6575 main 377 377 _________PP___ -1 12.5000 93.6575 TC 64 12.4075 93.6575 4 2 341
1886319N11094 1886 46 NI BB NOT_NAMED 1886-11-18 00:00:00 TS 12.5520 93.6161 main 368 368 _________OP___ -1 12.6000 93.6000 TC 64 12.5041 93.6322 4 2 337
1886319N11094 1886 46 NI BB NOT_NAMED 1886-11-18 03:00:00 TS 12.6500 93.5750 main 357 357 _________PO___ -1 12.7000 93.5500 TC 64 12.6000 93.6000 4 2 335
1886319N11094 1886 46 NI BB NOT_NAMED 1886-11-18 06:00:00 TS 12.7480 93.5286 main 360 349 _________OP___ -1 12.8000 93.5000 TC 64 12.6959 93.5572 4 2 333
1886319N11094 1886 46 NI BB NOT_NAMED 1886-11-18 09:00:00 TS 12.8425 93.4787 main 349 338 _________PP___ -1 12.8925 93.4500 TC 64 12.7925 93.5075 4 2 334
1886319N11094 1886 46 NI BB NOT_NAMED 1886-11-18 12:00:00 TS 12.9464 93.4270 main 342 320 _________OP___ -1 13.0000 93.4000 TC 64 12.8928 93.4541 4 3 335
1886319N11094 1886 46 NI BB NOT_NAMED 1886-11-18 15:00:00 TS 13.0750 93.3750 main 320 314 _________PO___ -1 13.1500 93.3500 TC 64 13.0000 93.4000 4 3 341
1886319N11094 1886 46 NI BB NOT_NAMED 1886-11-18 18:00:00 TS 13.2130 93.3250 main 314 303 _________OP___ -1 13.3000 93.3000 TC 64 13.1259 93.3500 4 3 340
1886319N11094 1886 46 NI BB NOT_NAMED 1886-11-18 21:00:00 TS 13.3325 93.2750 main 303 293 _________PP___ -1 13.4075 93.2500 TC 64 13.2575 93.3000 4 3 337
1886319N11094 1886 46 NI BB NOT_NAMED 1886-11-19 00:00:00 TS 13.4427 93.2250 main 298 288 _________OP___ -1 13.5000 93.2000 TC 64 13.3853 93.2500 4 2 337
1886319N11094 1886 46 NI BB NOT_NAMED 1886-11-19 03:00:00 TS 13.5537 93.1750 main 278 278 _________PO___ -1 13.6075 93.1500 TC 64 13.5000 93.2000 4 2 333
1886319N11094 1886 46 NI BB NOT_NAMED 1886-11-19 06:00:00 TS 13.6427 93.1250 main 283 273 _________OP___ -1 13.7000 93.1000 TC 64 13.5853 93.1500 4 2 328
1886319N11094 1886 46 NI BB NOT_NAMED 1886-11-19 09:00:00 TS 13.7037 93.0750 main 273 269 _________PP___ -1 13.7500 93.0500 TC 64 13.6575 93.1000 4 2 322
1886319N11094 1886 46 NI BB NOT_NAMED 1886-11-19 12:00:00 TS 13.7630 93.0250 main 269 269 _________OP___ -1 13.8000 93.0000 TC 64 13.7259 93.0500 4 2 326
1886319N11094 1886 46 NI BB NOT_NAMED 1886-11-19 15:00:00 TS 13.8462 92.9750 main 269 260 _________PO___ -1 13.8925 92.9500 TC 64 13.8000 93.0000 4 2 336
1886319N11094 1886 46 NI BB NOT_NAMED 1886-11-19 18:00:00 TS 13.9321 92.9431 main 266 258 _________OP___ -1 14.0000 92.9000 TC 64 13.8643 92.9863 4 2 341
1886319N11094 1886 46 NI BB NOT_NAMED 1886-11-19 21:00:00 TS 14.0049 92.9234 main 258 249 _________PP___ -1 14.0700 92.8799 TC 64 13.9398 92.9670 4 2 338
1886319N11094 1886 46 NI BB NOT_NAMED 1886-11-20 00:00:00 TS 14.1227 92.8571 main 249 240 _________OP___ -1 14.2000 92.8000 TC 64 14.0454 92.9143 4 4 326
1886319N11094 1886 46 NI BB NOT_NAMED 1886-11-20 03:00:00 TS 14.3388 92.6938 main 248 240 _________PO___ -1 14.4775 92.5876 TC 64 14.2000 92.8000 4 6 321
1886319N11094 1886 46 NI BB NOT_NAMED 1886-11-20 06:00:00 TS 14.6165 92.4470 main 248 241 _________OP___ -1 14.8000 92.3000 TC 64 14.4329 92.5941 4 8 317
1886319N11094 1886 46 NI BB NOT_NAMED 1886-11-20 09:00:00 TS 14.8851 92.1664 main 247 247 _________PP___ -1 15.0575 92.0074 TC 64 14.7127 92.3254 4 8 313
1886319N11094 1886 46 NI BB NOT_NAMED 1886-11-20 12:00:00 TS 15.1555 91.8595 main 262 262 _________OP___ -1 15.3000 91.7000 TC 64 15.0110 92.0190 4 8 312
1886319N11094 1886 46 NI BB NOT_NAMED 1886-11-20 15:00:00 TS 15.4287 91.5500 main 286 294 _________PO___ -1 15.5575 91.4000 TC 64 15.3000 91.7000 4 8 312
1886319N11094 1886 46 NI BB NOT_NAMED 1886-11-20 18:00:00 TS 15.6797 91.2617 main 312 312 _________OP___ -1 15.8000 91.1000 TC 64 15.5594 91.4233 4 7 311
1886319N11094 1886 46 NI BB NOT_NAMED 1886-11-20 21:00:00 TS 15.9085 90.9762 main 342 342 _________PP___ -1 16.0149 90.8149 TC 64 15.8021 91.1374 4 7 307
1886319N11094 1886 46 NI BB NOT_NAMED 1886-11-21 00:00:00 TS 16.1094 90.6664 main 374 374 _________OP___ -1 16.2000 90.5000 TC 64 16.0187 90.8327 4 7 300
1886319N11094 1886 46 NI BB NOT_NAMED 1886-11-21 03:00:00 TS 16.2863 90.3075 main 418 418 _________PO___ -1 16.3725 90.1150 TC 64 16.2000 90.5000 4 8 293
1886319N11094 1886 46 NI BB NOT_NAMED 1886-11-21 06:00:00 TS 16.4221 89.9122 main 461 461 _________OP___ -1 16.5000 89.7000 TC 64 16.3441 90.1245 4 8 286
1886319N11094 1886 46 NI BB NOT_NAMED 1886-11-21 09:00:00 TS 16.5088 89.5111 main 504 475 _________PP___ -1 16.5649 89.2999 TC 64 16.4526 89.7223 4 8 281
1886319N11094 1886 46 NI BB NOT_NAMED 1886-11-21 12:00:00 TS 16.5674 89.1045 main 475 451 _________OP___ -1 16.6000 88.9000 TC 64 16.5347 89.3089 4 8 278
1886319N11094 1886 46 NI BB NOT_NAMED 1886-11-21 15:00:00 TS 16.6250 88.6962 main 451 420 _________PO___ -1 16.6500 88.4925 TC 64 16.6000 88.9000 4 8 279
1886319N11094 1886 46 NI BB NOT_NAMED 1886-11-21 18:00:00 TS 16.6821 88.3047 main 420 405 _________OP___ -1 16.7000 88.1000 TC 64 16.6642 88.5095 4 7 278
1886319N11094 1886 46 NI BB NOT_NAMED 1886-11-21 21:00:00 TS 16.7324 87.9311 main 401 379 _________PP___ -1 16.7499 87.7350 TC 64 16.7148 88.1273 4 7 278
1886319N11094 1886 46 NI BB NOT_NAMED 1886-11-22 00:00:00 TS 16.7790 87.5782 main 379 363 _________OP___ -1 16.8000 87.4000 TC 64 16.7580 87.7564 4 7 278
1886319N11094 1886 46 NI BB NOT_NAMED 1886-11-22 03:00:00 TS 16.8249 87.2500 main 363 331 _________PO___ -1 16.8499 87.1000 TC 64 16.8000 87.4000 4 6 279
1886319N11094 1886 46 NI BB NOT_NAMED 1886-11-22 06:00:00 TS 16.8768 86.9344 main 323 300 _________OP___ -1 16.9000 86.8000 TC 64 16.8537 87.0687 4 6 280
1886319N11094 1886 46 NI BB NOT_NAMED 1886-11-22 09:00:00 TS 16.9285 86.6037 main 300 269 _________PP___ -1 16.9500 86.4575 TC 64 16.9070 86.7500 4 6 279
1886319N11094 1886 46 NI BB NOT_NAMED 1886-11-22 12:00:00 TS 16.9784 86.2656 main 269 238 _________OP___ -1 17.0000 86.1000 TC 64 16.9568 86.4312 4 7 279
1886319N11094 1886 46 NI BB NOT_NAMED 1886-11-22 15:00:00 TS 17.0287 85.9288 main 238 208 _________PO___ -1 17.0574 85.7575 TC 64 17.0000 86.1000 4 6 277
1886319N11094 1886 46 NI BB NOT_NAMED 1886-11-22 18:00:00 TS 17.0624 85.5982 main 208 177 _________OP___ -1 17.1000 85.4000 TC 64 17.0342 85.7469 4 7 274
1886319N11094 1886 46 NI BB NOT_NAMED 1886-11-22 21:00:00 TS 17.0805 85.2290 main 177 158 _________PP___ -1 17.1102 85.0100 TC 64 17.0608 85.3750 4 7 272
1886319N11094 1886 46 NI BB NOT_NAMED 1886-11-23 00:00:00 TS 17.0880 84.8604 main 158 143 _________OP___ -1 17.1000 84.6000 TC 64 17.0819 84.9906 4 6 272
1886319N11094 1886 46 NI BB NOT_NAMED 1886-11-23 03:00:00 NR 17.1000 84.6000 main 143 __________O___ -1 TC 17.1000 84.6000 4 5 273

About IBTrACS Database

This database is a web-friendly format of International Best Track Archive for Climate Stewardship (IBTrACS), a global best track data archive curated by NOAA dating back to 1842.

Updated: 2021-12-01